Time;durP1;ratioP1;P1;durP2;ratioP2;P2;SDS_P1;SDS_P2;PMS_P1;PMS_P2;Temp;Humidity;BMP_temperature;BMP_pressure;BME280_temperature;BME280_humidity;BME280_pressure;Samples;Min_cycle;Max_cycle;Signal;HPM_P1;HPM_P2
2022/12/30 00:00:48;;;;;;;;;;;;;;;4.50;67.49;100778.31;5364220;32;42285;-80
2022/12/30 00:03:50;;;;;;;;;;;;;;;4.37;68.17;100774.06;5397208;32;34415;-68
2022/12/30 00:06:52;;;;;;;;;;;;;;;3.35;70.53;100771.19;5350095;32;35566;-67
2022/12/30 00:09:54;;;;;;;;;;;;;;;3.49;68.88;100774.59;5376594;32;34685;-68
2022/12/30 00:33:14;;;;;;;;;;;;;;;3.10;72.43;100790.31;5344883;32;34691;-69
2022/12/30 00:36:15;;;;;;;;;;;;;;;3.44;71.16;100791.94;5384688;32;34834;-81
2022/12/30 00:39:17;;;;;;;;;;;;;;;3.22;71.27;100783.34;5363596;32;45087;-82
2022/12/30 00:45:40;;;;;;;;;;;;;;;4.33;68.49;100768.91;5368017;32;35532;-82
2022/12/30 00:58:43;;;;;;;;;;;;;;;4.11;69.15;100790.72;5369462;32;34367;-67
2022/12/30 01:01:45;;;;;;;;;;;;;;;3.63;70.68;100787.53;5364813;32;35076;-67
2022/12/30 01:04:47;;;;;;;;;;;;;;;3.31;72.05;100779.84;5361800;32;44550;-66
2022/12/30 01:07:49;;;;;;;;;;;;;;;3.36;72.11;100782.44;5385535;32;34885;-67
2022/12/30 01:10:51;;;;;;;;;;;;;;;3.52;71.66;100768.50;5361336;32;33149;-67
2022/12/30 01:13:53;;;;;;;;;;;;;;;3.86;71.36;100769.19;5394126;32;35529;-80
2022/12/30 01:16:55;;;;;;;;;;;;;;;3.98;69.92;100765.66;5381848;32;35656;-81
2022/12/30 01:19:57;;;;;;;;;;;;;;;3.73;71.32;100772.75;5377937;32;35161;-81
2022/12/30 01:22:59;;;;;;;;;;;;;;;3.72;70.52;100771.88;5396418;32;35463;-76
2022/12/30 01:26:01;;;;;;;;;;;;;;;4.10;69.59;100767.34;5376790;32;35459;-67
2022/12/30 01:29:03;;;;;;;;;;;;;;;3.59;71.46;100761.56;5396153;32;35538;-68
2022/12/30 01:32:06;;;;;;;;;;;;;;;3.63;72.24;100758.06;5361435;32;35688;-68
2022/12/30 01:35:10;;;;;;;;;;;;;;;4.41;69.76;100747.16;5360444;32;34773;-69
2022/12/30 01:38:12;;;;;;;;;;;;;;;3.89;70.47;100757.94;5348391;32;35875;-82
2022/12/30 01:41:14;;;;;;;;;;;;;;;3.66;72.02;100758.03;5354690;32;34723;-68
2022/12/30 01:44:34;;;;;;;;;;;;;;;4.48;69.43;100749.69;5364440;32;35514;-68
2022/12/30 01:47:36;;;;;;;;;;;;;;;3.53;71.64;100752.91;5356105;32;34968;-68
2022/12/30 01:50:41;;;;;;;;;;;;;;;3.85;71.41;100745.81;5357489;32;35080;-81
2022/12/30 01:53:44;;;;;;;;;;;;;;;3.99;70.92;100754.38;5340382;32;34849;-81
2022/12/30 01:56:46;;;;;;;;;;;;;;;3.30;75.18;100754.75;5369402;32;45058;-67
2022/12/30 01:59:48;;;;;;;;;;;;;;;3.57;73.73;100745.97;5389653;32;35465;-80
2022/12/30 02:02:50;;;;;;;;;;;;;;;4.69;69.79;100748.63;5376949;32;35863;-68
2022/12/30 02:05:54;;;;;;;;;;;;;;;4.22;69.94;100747.31;5393983;32;34308;-80
2022/12/30 02:08:56;;;;;;;;;;;;;;;3.88;73.04;100740.59;5378350;32;34909;-77
2022/12/30 02:11:59;;;;;;;;;;;;;;;3.47;73.56;100739.06;5380310;32;34815;-81
2022/12/30 02:15:01;;;;;;;;;;;;;;;3.37;74.15;100740.00;5380171;32;35470;-68
2022/12/30 02:18:05;;;;;;;;;;;;;;;4.19;72.12;100728.25;5384485;32;34734;-81
2022/12/30 02:21:11;;;;;;;;;;;;;;;4.72;69.69;100729.53;5390867;32;37095;-69
2022/12/30 02:24:28;;;;;;;;;;;;;;;4.14;70.43;100730.03;5377796;32;35843;-83
2022/12/30 02:27:37;;;;;;;;;;;;;;;4.89;68.36;100722.41;5395026;32;35513;-81
2022/12/30 02:30:39;;;;;;;;;;;;;;;3.53;72.85;100736.44;5361136;32;35028;-81
2022/12/30 02:33:59;;;;;;;;;;;;;;;3.43;75.29;100737.38;5368367;32;34394;-67
2022/12/30 02:37:28;;;;;;;;;;;;;;;3.23;74.72;100734.84;5390378;32;34976;-81
2022/12/30 02:44:36;;;;;;;;;;;;;;;3.41;75.57;100728.69;5358649;32;34453;-68
2022/12/30 02:47:17;;;;;;;;;;;;;;;3.41;75.08;100732.16;5370956;32;45399;-81
2022/12/30 02:53:44;;;;;;;;;;;;;;;3.91;72.28;100724.97;5380676;32;35452;-81
2022/12/30 02:56:47;;;;;;;;;;;;;;;3.25;76.37;100733.97;5364789;32;45362;-81
2022/12/30 03:06:46;;;;;;;;;;;;;;;2.81;79.28;100738.44;5354285;32;34932;-69
2022/12/30 03:13:46;;;;;;;;;;;;;;;3.46;76.36;100730.41;5381277;32;34796;-67
2022/12/30 03:16:52;;;;;;;;;;;;;;;3.75;75.70;100727.69;5377133;32;45548;-80
2022/12/30 03:19:54;;;;;;;;;;;;;;;3.06;79.43;100734.03;5395079;32;34873;-82
2022/12/30 03:29:37;;;;;;;;;;;;;;;2.95;77.80;100727.12;5363874;32;35191;-76
2022/12/30 03:32:39;;;;;;;;;;;;;;;3.37;76.96;100719.22;5350174;32;35183;-82
2022/12/30 03:35:43;;;;;;;;;;;;;;;3.13;78.04;100718.44;5388328;32;35643;-68
2022/12/30 03:38:47;;;;;;;;;;;;;;;3.63;75.59;100713.88;5376133;32;35140;-67
2022/12/30 03:41:49;;;;;;;;;;;;;;;3.55;76.07;100713.94;5374358;32;45935;-68
2022/12/30 03:44:51;;;;;;;;;;;;;;;3.57;75.68;100722.56;5334539;32;35202;-80
2022/12/30 03:47:53;;;;;;;;;;;;;;;3.46;76.50;100719.16;5372271;32;34945;-81
2022/12/30 03:50:55;;;;;;;;;;;;;;;3.47;76.88;100721.75;5327057;32;35085;-76
2022/12/30 03:53:57;;;;;;;;;;;;;;;3.47;77.42;100708.75;5346493;32;35059;-67
2022/12/30 03:56:59;;;;;;;;;;;;;;;3.15;77.58;100711.47;5360809;32;35425;-82
2022/12/30 04:00:01;;;;;;;;;;;;;;;3.66;75.06;100706.06;5359058;32;34279;-68
2022/12/30 04:03:02;;;;;;;;;;;;;;;3.35;76.86;100703.62;5377265;32;34608;-68
2022/12/30 04:06:05;;;;;;;;;;;;;;;3.96;76.23;100705.00;5376152;32;34971;-66
2022/12/30 04:09:07;;;;;;;;;;;;;;;3.76;74.90;100711.19;5384012;32;35580;-81
2022/12/30 04:12:09;;;;;;;;;;;;;;;4.39;73.43;100707.28;5363151;32;35605;-67
2022/12/30 04:15:11;;;;;;;;;;;;;;;4.17;72.98;100707.44;5351770;32;34723;-81
2022/12/30 04:18:12;;;;;;;;;;;;;;;3.87;74.59;100707.69;5365284;32;34795;-68
2022/12/30 04:21:14;;;;;;;;;;;;;;;4.30;73.53;100703.00;5354297;32;36152;-82
2022/12/30 04:24:17;;;;;;;;;;;;;;;4.40;73.03;100711.59;5375745;32;43235;-81
2022/12/30 04:27:19;;;;;;;;;;;;;;;4.26;73.94;100712.59;5379801;32;35524;-81
2022/12/30 04:30:21;;;;;;;;;;;;;;;5.36;69.50;100714.06;5387017;32;35466;-67
2022/12/30 04:33:23;;;;;;;;;;;;;;;4.60;72.70;100714.87;5383642;32;33978;-75
2022/12/30 04:36:24;;;;;;;;;;;;;;;4.57;72.94;100712.28;5374723;32;35043;-76
2022/12/30 04:39:27;;;;;;;;;;;;;;;3.76;75.50;100732.00;5393039;32;35376;-68
2022/12/30 04:42:29;;;;;;;;;;;;;;;4.20;74.60;100717.84;5378783;32;35695;-75
2022/12/30 04:45:31;;;;;;;;;;;;;;;3.94;75.79;100725.84;5395583;32;34796;-67
2022/12/30 04:48:33;;;;;;;;;;;;;;;3.26;78.21;100734.84;5362469;32;35269;-68
2022/12/30 04:51:35;;;;;;;;;;;;;;;3.85;76.80;100735.41;5334933;32;35125;-82
2022/12/30 04:54:36;;;;;;;;;;;;;;;3.46;78.20;100737.34;5353550;32;36198;-76
2022/12/30 04:57:38;;;;;;;;;;;;;;;3.79;77.36;100733.72;5360003;32;34543;-81
2022/12/30 05:00:40;;;;;;;;;;;;;;;4.19;76.28;100716.13;5352756;32;35764;-81
2022/12/30 05:03:42;;;;;;;;;;;;;;;3.58;77.02;100729.50;5356518;32;34905;-67
2022/12/30 05:06:44;;;;;;;;;;;;;;;3.21;80.14;100732.25;5383177;32;35771;-81
2022/12/30 05:09:46;;;;;;;;;;;;;;;3.48;78.64;100725.22;5349130;32;36462;-67
2022/12/30 05:12:48;;;;;;;;;;;;;;;3.57;80.08;100734.72;5375238;32;35128;-68
2022/12/30 05:15:50;;;;;;;;;;;;;;;3.25;78.45;100728.78;5384336;32;35312;-67
2022/12/30 05:18:51;;;;;;;;;;;;;;;3.73;77.44;100729.41;5379714;32;36281;-81
2022/12/30 05:21:53;;;;;;;;;;;;;;;3.45;78.38;100735.63;5396673;32;35084;-68
2022/12/30 05:28:16;;;;;;;;;;;;;;;3.98;78.66;100734.47;5393718;32;35777;-81
2022/12/30 05:31:18;;;;;;;;;;;;;;;3.68;78.76;100746.78;5362400;32;45169;-81
2022/12/30 05:34:20;;;;;;;;;;;;;;;3.22;81.44;100748.69;5345693;32;35468;-67
2022/12/30 05:37:22;;;;;;;;;;;;;;;3.01;82.67;100748.75;5374473;32;35341;-82
2022/12/30 05:40:24;;;;;;;;;;;;;;;3.26;81.31;100742.63;5360362;32;34470;-76
2022/12/30 05:43:25;;;;;;;;;;;;;;;3.45;80.11;100744.28;5375020;32;35015;-68
2022/12/30 05:46:27;;;;;;;;;;;;;;;3.45;80.95;100753.81;5343892;32;34364;-67
2022/12/30 05:49:29;;;;;;;;;;;;;;;3.69;80.36;100743.31;5370359;32;35738;-67
2022/12/30 05:52:31;;;;;;;;;;;;;;;3.55;79.32;100757.25;5341619;32;34954;-81
2022/12/30 05:55:33;;;;;;;;;;;;;;;2.93;81.92;100752.25;5346757;32;34979;-67
2022/12/30 05:58:35;;;;;;;;;;;;;;;4.00;78.96;100759.59;5367389;32;35058;-68
2022/12/30 06:01:37;;;;;;;;;;;;;;;2.93;80.96;100767.81;5358120;32;35093;-69
2022/12/30 06:04:39;;;;;;;;;;;;;;;3.28;81.09;100774.66;5382883;32;34301;-67
2022/12/30 06:07:41;;;;;;;;;;;;;;;3.62;80.27;100770.22;5351415;32;34776;-67
2022/12/30 06:10:43;;;;;;;;;;;;;;;3.16;81.89;100765.19;5373810;32;34454;-67
2022/12/30 06:13:45;;;;;;;;;;;;;;;3.21;82.20;100772.94;5349432;32;36041;-67
2022/12/30 06:16:47;;;;;;;;;;;;;;;4.34;78.29;100772.37;5364858;32;44626;-82
2022/12/30 06:19:49;;;;;;;;;;;;;;;3.43;81.05;100786.75;5395911;32;35116;-67
2022/12/30 06:22:51;;;;;;;;;;;;;;;3.22;81.38;100785.94;5370932;32;36667;-81
2022/12/30 06:25:57;;;;;;;;;;;;;;;2.68;84.62;100792.09;5394672;32;34963;-68
2022/12/30 06:28:59;;;;;;;;;;;;;;;2.85;84.71;100789.47;5365897;32;34033;-75
2022/12/30 06:32:00;;;;;;;;;;;;;;;3.61;83.50;100797.06;5375871;32;36180;-67
2022/12/30 06:35:03;;;;;;;;;;;;;;;3.49;81.14;100794.53;5379443;32;34151;-81
2022/12/30 06:38:04;;;;;;;;;;;;;;;3.88;79.89;100787.41;5374770;32;34740;-67
2022/12/30 06:41:06;;;;;;;;;;;;;;;3.87;80.51;100786.56;5394200;32;35278;-67
2022/12/30 06:44:08;;;;;;;;;;;;;;;3.87;79.88;100790.91;5366353;32;35436;-81
2022/12/30 06:47:13;;;;;;;;;;;;;;;3.51;80.41;100785.84;5393448;32;34309;-81
2022/12/30 06:50:15;;;;;;;;;;;;;;;3.44;82.35;100799.72;5362894;32;35518;-82
2022/12/30 06:53:17;;;;;;;;;;;;;;;3.67;81.70;100804.84;5361717;32;45220;-67
2022/12/30 06:56:19;;;;;;;;;;;;;;;3.31;82.98;100798.03;5382633;32;35471;-68
2022/12/30 06:59:20;;;;;;;;;;;;;;;3.34;84.12;100804.94;5378649;32;34851;-82
2022/12/30 07:02:22;;;;;;;;;;;;;;;2.91;84.40;100816.31;5393625;32;35697;-69
2022/12/30 07:05:24;;;;;;;;;;;;;;;3.16;85.53;100805.88;5377921;32;34550;-68
2022/12/30 07:08:26;;;;;;;;;;;;;;;3.72;82.79;100808.28;5394972;32;34682;-67
2022/12/30 07:11:28;;;;;;;;;;;;;;;3.66;82.28;100820.44;5377439;32;34613;-68
2022/12/30 07:14:30;;;;;;;;;;;;;;;3.42;83.71;100814.47;5378839;32;35090;-67
2022/12/30 07:17:33;;;;;;;;;;;;;;;3.23;85.22;100842.22;5374377;32;34928;-81
2022/12/30 07:20:35;;;;;;;;;;;;;;;4.00;82.86;100844.56;5360726;32;34790;-68
2022/12/30 07:23:37;;;;;;;;;;;;;;;4.68;78.00;100835.44;5374023;32;35180;-81
2022/12/30 07:26:38;;;;;;;;;;;;;;;3.66;80.53;100842.09;5349481;32;35022;-68
2022/12/30 07:29:40;;;;;;;;;;;;;;;3.68;81.93;100849.91;5370545;32;35680;-67
2022/12/30 07:32:42;;;;;;;;;;;;;;;3.60;81.04;100846.44;5348055;32;35469;-67
2022/12/30 07:35:44;;;;;;;;;;;;;;;3.85;81.63;100853.28;5358484;32;34818;-82
2022/12/30 07:38:46;;;;;;;;;;;;;;;3.36;84.47;100865.59;5379893;32;44937;-79
2022/12/30 07:41:48;;;;;;;;;;;;;;;3.58;82.78;100861.19;5378716;32;35352;-69
2022/12/30 07:44:50;;;;;;;;;;;;;;;4.29;81.03;100868.69;5396761;32;35107;-82
2022/12/30 07:47:51;;;;;;;;;;;;;;;3.52;79.98;100868.13;5378563;32;35213;-83
2022/12/30 07:50:53;;;;;;;;;;;;;;;4.30;80.18;100867.78;5377615;32;34911;-68
2022/12/30 07:53:57;;;;;;;;;;;;;;;3.90;81.53;100876.69;5357783;32;34353;-70
2022/12/30 07:57:07;;;;;;;;;;;;;;;4.12;81.19;100874.84;5385684;32;34385;-77
2022/12/30 08:00:09;;;;;;;;;;;;;;;4.01;80.10;100877.50;5377584;32;34968;-69
2022/12/30 08:03:11;;;;;;;;;;;;;;;3.98;80.50;100864.50;5377255;32;35008;-68
2022/12/30 08:06:14;;;;;;;;;;;;;;;3.63;81.16;100870.72;5390865;32;35511;-67
2022/12/30 08:09:16;;;;;;;;;;;;;;;3.40;81.45;100878.56;5365070;32;37620;-70
2022/12/30 08:12:18;;;;;;;;;;;;;;;4.41;80.97;100888.56;5394089;32;35742;-80
2022/12/30 08:15:20;;;;;;;;;;;;;;;5.10;76.42;100888.94;5382866;32;34807;-68
2022/12/30 08:18:22;;;;;;;;;;;;;;;4.62;77.32;100897.97;5371360;32;34874;-82
2022/12/30 08:21:30;;;;;;;;;;;;;;;4.84;75.68;100899.56;5391804;32;36366;-68
2022/12/30 08:24:32;;;;;;;;;;;;;;;4.58;78.33;100891.06;5381845;32;34821;-69
2022/12/30 08:27:34;;;;;;;;;;;;;;;4.68;77.14;100897.06;5394900;32;34414;-68
2022/12/30 08:30:37;;;;;;;;;;;;;;;4.47;77.86;100892.88;5378971;32;34940;-68
2022/12/30 08:33:39;;;;;;;;;;;;;;;4.76;77.68;100882.25;5392240;32;34455;-82
2022/12/30 08:36:41;;;;;;;;;;;;;;;5.07;75.74;100875.06;5378144;32;35018;-82
2022/12/30 08:39:43;;;;;;;;;;;;;;;4.74;75.38;100874.47;5383758;32;34515;-67
2022/12/30 08:42:45;;;;;;;;;;;;;;;4.43;76.42;100885.94;5390680;32;34963;-67
2022/12/30 08:45:56;;;;;;;;;;;;;;;4.85;75.48;100882.19;5380703;32;45663;-83
2022/12/30 08:48:58;;;;;;;;;;;;;;;4.18;78.00;100890.41;5393324;32;34765;-68
2022/12/30 08:52:01;;;;;;;;;;;;;;;5.21;74.19;100898.37;5360174;32;34885;-68
2022/12/30 08:55:03;;;;;;;;;;;;;;;5.03;73.39;100910.72;5394469;32;34387;-68
2022/12/30 08:58:05;;;;;;;;;;;;;;;4.74;76.45;100908.31;5381618;32;35160;-68
2022/12/30 09:01:11;;;;;;;;;;;;;;;3.97;79.73;100907.84;5365194;32;35630;-68
2022/12/30 09:04:13;;;;;;;;;;;;;;;4.18;79.44;100901.69;5393347;32;34720;-69
2022/12/30 09:07:15;;;;;;;;;;;;;;;4.64;77.62;100898.84;5378192;32;35309;-69
2022/12/30 09:10:37;;;;;;;;;;;;;;;4.83;76.65;100900.44;5394984;32;35846;-68
2022/12/30 09:13:39;;;;;;;;;;;;;;;5.55;72.69;100898.94;5351837;32;870897;-69
2022/12/30 09:16:41;;;;;;;;;;;;;;;4.86;75.79;100896.94;5372330;32;34751;-68
2022/12/30 09:19:43;;;;;;;;;;;;;;;4.53;77.14;100914.53;5390860;32;35008;-82
2022/12/30 09:22:45;;;;;;;;;;;;;;;4.12;79.54;100912.13;5377003;32;34748;-83
2022/12/30 09:25:47;;;;;;;;;;;;;;;5.56;74.58;100906.75;5375907;32;45137;-68
2022/12/30 09:28:50;;;;;;;;;;;;;;;5.93;72.99;100909.84;5380386;32;35207;-68
2022/12/30 09:31:51;;;;;;;;;;;;;;;5.46;74.21;100912.06;5376222;32;34814;-67
2022/12/30 09:34:54;;;;;;;;;;;;;;;5.65;73.55;100918.81;5380276;32;35362;-67
2022/12/30 09:37:55;;;;;;;;;;;;;;;4.45;77.91;100920.66;5355597;32;34981;-69
2022/12/30 09:40:57;;;;;;;;;;;;;;;5.25;75.40;100918.34;5387837;32;34828;-68
2022/12/30 09:43:59;;;;;;;;;;;;;;;5.51;74.71;100905.06;5376690;32;35960;-77
2022/12/30 09:47:01;;;;;;;;;;;;;;;6.26;72.81;100896.41;5393288;32;34237;-67
2022/12/30 09:50:09;;;;;;;;;;;;;;;5.73;72.35;100903.94;5379274;32;35125;-82
2022/12/30 09:53:13;;;;;;;;;;;;;;;6.83;70.10;100897.31;5361981;32;35825;-82
2022/12/30 09:56:17;;;;;;;;;;;;;;;5.61;72.86;100910.16;5376673;32;34892;-67
2022/12/30 09:59:18;;;;;;;;;;;;;;;5.03;74.94;100915.06;5375167;32;43316;-82
2022/12/30 10:02:22;;;;;;;;;;;;;;;5.44;73.67;100905.13;5377746;32;35217;-68
2022/12/30 10:05:32;;;;;;;;;;;;;;;4.77;76.56;100912.66;5347702;32;35373;-82
2022/12/30 10:08:37;;;;;;;;;;;;;;;4.70;79.04;100913.53;5370724;32;34964;-82
2022/12/30 10:11:48;;;;;;;;;;;;;;;5.37;76.02;100907.81;5373072;32;34826;-70
2022/12/30 10:14:59;;;;;;;;;;;;;;;5.28;76.76;100913.09;5384015;32;44896;-82
2022/12/30 10:18:07;;;;;;;;;;;;;;;5.47;75.34;100908.56;5380412;32;35321;-67
2022/12/30 10:21:16;;;;;;;;;;;;;;;6.42;71.48;100888.31;5360189;32;34806;-69
2022/12/30 10:24:27;;;;;;;;;;;;;;;6.11;70.85;100892.22;5370541;32;46443;-69
2022/12/30 10:27:31;;;;;;;;;;;;;;;6.48;70.81;100893.44;5361077;32;34411;-69
2022/12/30 10:30:34;;;;;;;;;;;;;;;6.19;70.68;100893.00;5369241;32;35058;-70
2022/12/30 10:33:36;;;;;;;;;;;;;;;6.46;68.64;100887.41;5367065;32;34880;-69
2022/12/30 10:36:57;;;;;;;;;;;;;;;6.21;71.06;100899.06;5349915;32;35104;-81
2022/12/30 10:39:59;;;;;;;;;;;;;;;4.82;76.28;100909.09;5364347;32;34457;-67
2022/12/30 10:43:01;;;;;;;;;;;;;;;5.61;74.11;100896.28;5339020;32;34956;-82
2022/12/30 10:46:17;;;;;;;;;;;;;;;5.58;72.96;100898.91;5371725;32;34914;-67
2022/12/30 10:49:31;;;;;;;;;;;;;;;5.95;72.04;100897.63;5377809;32;47542;-69
2022/12/30 10:52:33;;;;;;;;;;;;;;;5.87;72.27;100891.63;5329458;32;35605;-68
2022/12/30 10:55:36;;;;;;;;;;;;;;;5.64;73.48;100893.63;5371864;32;36039;-67
2022/12/30 10:58:39;;;;;;;;;;;;;;;5.29;74.39;100897.44;5341903;32;35010;-68
2022/12/30 11:01:41;;;;;;;;;;;;;;;6.03;72.12;100902.75;5354379;32;35043;-69
2022/12/30 11:04:43;;;;;;;;;;;;;;;6.89;68.50;100894.59;5359087;32;35417;-81
2022/12/30 11:07:56;;;;;;;;;;;;;;;6.54;69.58;100886.41;5376781;32;35536;-69
2022/12/30 11:10:58;;;;;;;;;;;;;;;6.73;69.01;100893.97;5384711;32;35725;-68
2022/12/30 11:17:25;;;;;;;;;;;;;;;6.40;70.84;100869.22;5375197;32;45123;-68
2022/12/30 11:20:39;;;;;;;;;;;;;;;5.83;71.71;100879.50;5355988;32;34150;-81
2022/12/30 11:23:41;;;;;;;;;;;;;;;6.19;72.44;100883.44;5366766;32;36546;-82
2022/12/30 11:26:45;;;;;;;;;;;;;;;6.50;71.26;100868.19;5351838;32;35380;-68
2022/12/30 11:29:52;;;;;;;;;;;;;;;6.20;71.35;100881.69;5378157;32;44704;-83
2022/12/30 11:32:54;;;;;;;;;;;;;;;6.45;71.57;100875.22;5368225;32;35014;-68
2022/12/30 11:36:15;;;;;;;;;;;;;;;8.07;65.04;100877.59;5369523;32;34853;-68
2022/12/30 11:39:25;;;;;;;;;;;;;;;7.01;67.10;100889.16;5373953;32;44336;-82
2022/12/30 11:42:29;;;;;;;;;;;;;;;5.71;72.14;100884.84;5368112;32;34049;-80
2022/12/30 11:45:31;;;;;;;;;;;;;;;6.84;70.40;100890.34;5369048;32;34264;-69
2022/12/30 11:48:33;;;;;;;;;;;;;;;6.81;69.35;100877.28;5379806;32;33886;-76
2022/12/30 11:51:42;;;;;;;;;;;;;;;8.00;66.01;100875.13;5341747;32;34852;-84
2022/12/30 11:54:58;;;;;;;;;;;;;;;6.60;69.21;100881.13;5395304;32;45167;-81
2022/12/30 11:58:00;;;;;;;;;;;;;;;6.35;71.44;100883.22;5383415;32;33889;-68
2022/12/30 12:01:10;;;;;;;;;;;;;;;8.12;65.35;100886.22;5380790;32;34986;-68
2022/12/30 12:04:33;;;;;;;;;;;;;;;8.58;63.03;100900.94;5392329;32;35323;-69
2022/12/30 12:07:36;;;;;;;;;;;;;;;8.19;64.54;100899.19;5367654;32;36767;-70
2022/12/30 12:10:40;;;;;;;;;;;;;;;7.31;67.24;100906.06;5382768;32;34729;-70
2022/12/30 12:13:43;;;;;;;;;;;;;;;7.96;65.32;100902.25;5366149;32;34978;-84
2022/12/30 12:17:00;;;;;;;;;;;;;;;7.75;65.38;100906.16;5389681;32;35306;-82
2022/12/30 12:20:05;;;;;;;;;;;;;;;7.60;67.10;100908.19;5393889;32;35058;-81
2022/12/30 12:23:10;;;;;;;;;;;;;;;7.04;69.31;100910.03;5380802;32;35361;-80
2022/12/30 12:26:13;;;;;;;;;;;;;;;6.93;70.79;100924.16;5397399;32;35686;-68
2022/12/30 12:29:15;;;;;;;;;;;;;;;5.92;74.06;100917.66;5380147;32;34550;-69
2022/12/30 12:32:17;;;;;;;;;;;;;;;6.64;72.31;100906.31;5389873;32;44693;-83
2022/12/30 12:35:45;;;;;;;;;;;;;;;6.47;72.88;100906.53;5381534;32;36174;-82
2022/12/30 12:38:46;;;;;;;;;;;;;;;6.92;70.46;100905.00;5373071;32;43029;-69
2022/12/30 12:41:53;;;;;;;;;;;;;;;8.00;67.39;100896.06;5369427;32;34286;-68
2022/12/30 12:45:11;;;;;;;;;;;;;;;8.41;65.77;100909.19;5348282;32;35342;-76
2022/12/30 12:48:31;;;;;;;;;;;;;;;7.98;65.04;100901.31;5364444;32;34463;-82
2022/12/30 12:51:33;;;;;;;;;;;;;;;7.56;67.49;100923.97;5348254;32;35100;-83
2022/12/30 12:54:39;;;;;;;;;;;;;;;7.95;67.30;100914.47;5357795;32;35201;-81
2022/12/30 12:57:54;;;;;;;;;;;;;;;8.42;65.05;100904.78;5391729;32;44949;-82
2022/12/30 13:00:56;;;;;;;;;;;;;;;7.83;67.71;100896.41;5384166;32;35338;-68
2022/12/30 13:04:08;;;;;;;;;;;;;;;8.73;65.08;100901.50;5391211;32;35907;-76
2022/12/30 13:07:17;;;;;;;;;;;;;;;8.37;64.71;100906.66;5367471;32;35962;-68
2022/12/30 13:10:28;;;;;;;;;;;;;;;8.37;64.24;100901.41;5375638;32;45155;-82
2022/12/30 13:13:42;;;;;;;;;;;;;;;8.60;65.03;100908.78;5365080;32;35876;-82
2022/12/30 13:16:48;;;;;;;;;;;;;;;8.41;64.90;100908.31;5371251;32;35427;-68
2022/12/30 13:19:54;;;;;;;;;;;;;;;8.87;64.49;100902.03;5392261;32;45102;-82
2022/12/30 13:23:02;;;;;;;;;;;;;;;9.48;62.38;100903.12;5362694;32;35667;-77
2022/12/30 13:26:04;;;;;;;;;;;;;;;9.67;61.00;100917.47;5367395;32;34906;-68
2022/12/30 13:29:06;;;;;;;;;;;;;;;9.81;60.36;100908.37;5396013;32;34947;-78
2022/12/30 13:32:30;;;;;;;;;;;;;;;9.44;61.53;100918.06;5366274;32;34526;-81
2022/12/30 13:35:34;;;;;;;;;;;;;;;9.37;62.01;100931.38;5390489;32;34838;-77
2022/12/30 13:38:36;;;;;;;;;;;;;;;9.72;60.99;100925.19;5380197;32;34726;-82
2022/12/30 13:41:47;;;;;;;;;;;;;;;8.48;65.14;100932.63;5386808;32;36667;-68
2022/12/30 13:44:50;;;;;;;;;;;;;;;8.52;64.94;100936.91;5377500;32;45340;-82
2022/12/30 13:48:10;;;;;;;;;;;;;;;9.52;62.33;100933.59;5358615;32;35003;-82
2022/12/30 13:51:18;;;;;;;;;;;;;;;8.99;63.58;100948.91;5361768;32;34757;-82
2022/12/30 13:54:20;;;;;;;;;;;;;;;8.52;64.73;100940.38;5354661;32;43935;-68
2022/12/30 13:57:28;;;;;;;;;;;;;;;8.80;64.39;100943.25;5349053;32;35364;-83
2022/12/30 14:00:34;;;;;;;;;;;;;;;8.38;66.44;100947.69;5366770;32;35445;-75
2022/12/30 14:03:36;;;;;;;;;;;;;;;8.98;63.05;100951.59;5353986;32;34591;-68
2022/12/30 14:06:48;;;;;;;;;;;;;;;8.28;66.99;100956.59;5370924;32;34704;-67
2022/12/30 14:10:09;;;;;;;;;;;;;;;9.33;64.08;100942.84;5381005;32;44687;-69
2022/12/30 14:13:11;;;;;;;;;;;;;;;9.16;64.74;100951.16;5367857;32;34449;-68
2022/12/30 14:16:32;;;;;;;;;;;;;;;7.99;70.15;100959.78;5365837;32;36096;-81
2022/12/30 14:19:39;;;;;;;;;;;;;;;7.67;72.75;100982.19;5346609;32;35052;-83
2022/12/30 14:22:41;;;;;;;;;;;;;;;7.52;73.77;100980.69;5364606;32;34155;-68
2022/12/30 14:25:43;;;;;;;;;;;;;;;8.45;70.57;100982.47;5374635;32;35899;-83
2022/12/30 14:28:48;;;;;;;;;;;;;;;7.58;74.10;100982.34;5393107;32;36013;-83
2022/12/30 14:31:50;;;;;;;;;;;;;;;7.18;75.94;100995.19;5365123;32;45060;-69
2022/12/30 14:34:57;;;;;;;;;;;;;;;7.11;76.11;100990.97;5366628;32;34473;-68
2022/12/30 14:38:13;;;;;;;;;;;;;;;7.06;76.93;100998.84;5391921;32;34157;-82
2022/12/30 14:41:23;;;;;;;;;;;;;;;7.38;75.10;100998.34;5369457;32;35380;-68
2022/12/30 14:44:26;;;;;;;;;;;;;;;7.16;76.53;100997.84;5390104;32;44764;-83
2022/12/30 14:47:45;;;;;;;;;;;;;;;7.73;74.66;100996.87;5379350;32;35619;-67
2022/12/30 14:50:47;;;;;;;;;;;;;;;7.55;75.46;100991.09;5367960;32;45051;-83
2022/12/30 14:53:49;;;;;;;;;;;;;;;7.72;75.62;100998.66;5377250;32;34570;-84
2022/12/30 14:56:53;;;;;;;;;;;;;;;8.12;73.66;101006.66;5347452;32;36804;-68
2022/12/30 15:00:11;;;;;;;;;;;;;;;9.22;67.72;101004.31;5395194;32;34966;-68
2022/12/30 15:03:14;;;;;;;;;;;;;;;8.64;68.88;101010.00;5355713;32;34933;-68
2022/12/30 15:06:17;;;;;;;;;;;;;;;8.18;70.94;101028.34;5369821;32;34283;-69
2022/12/30 15:09:20;;;;;;;;;;;;;;;8.36;70.83;101030.66;5380515;32;44662;-83
2022/12/30 15:12:23;;;;;;;;;;;;;;;8.39;69.80;101020.13;5357250;32;34644;-69
2022/12/30 15:15:25;;;;;;;;;;;;;;;8.13;70.87;101023.22;5373092;32;35126;-69
2022/12/30 15:18:37;;;;;;;;;;;;;;;9.07;67.33;101027.41;5355000;32;34792;-67
2022/12/30 15:21:45;;;;;;;;;;;;;;;8.35;68.01;101015.78;5363459;32;35398;-83
2022/12/30 15:24:47;;;;;;;;;;;;;;;8.88;67.65;101021.69;5358533;32;42959;-70
2022/12/30 15:27:53;;;;;;;;;;;;;;;8.54;67.29;101019.81;5352387;32;35512;-83
2022/12/30 15:30:55;;;;;;;;;;;;;;;9.02;66.25;101022.28;5367714;32;34428;-77
2022/12/30 15:33:59;;;;;;;;;;;;;;;8.12;68.45;101032.84;5355667;32;34695;-68
2022/12/30 15:37:02;;;;;;;;;;;;;;;8.47;67.73;101026.06;5361844;32;34421;-83
2022/12/30 15:40:05;;;;;;;;;;;;;;;8.81;66.73;101023.59;5347997;32;34371;-68
2022/12/30 15:43:11;;;;;;;;;;;;;;;8.72;66.92;101026.44;5367246;32;34262;-71
2022/12/30 15:46:42;;;;;;;;;;;;;;;8.72;66.41;101013.31;5360631;32;35482;-84
2022/12/30 15:49:48;;;;;;;;;;;;;;;9.14;64.65;101023.72;5326164;32;34308;-68
2022/12/30 15:52:50;;;;;;;;;;;;;;;9.49;62.80;101030.78;5365435;32;44761;-83
2022/12/30 15:55:52;;;;;;;;;;;;;;;8.76;65.45;101035.97;5349678;32;35736;-69
2022/12/30 15:58:57;;;;;;;;;;;;;;;9.56;63.08;101042.84;5379100;32;34488;-68
2022/12/30 16:02:03;;;;;;;;;;;;;;;9.47;62.83;101037.84;5338307;32;34918;-76
2022/12/30 16:05:07;;;;;;;;;;;;;;;7.84;68.71;101053.38;5337022;32;35687;-67
2022/12/30 16:08:11;;;;;;;;;;;;;;;7.77;69.99;101050.91;5363536;32;35575;-83
2022/12/30 16:11:26;;;;;;;;;;;;;;;7.79;71.34;101054.34;5358024;32;34672;-68
2022/12/30 16:14:38;;;;;;;;;;;;;;;8.52;68.30;101053.03;5364659;32;35463;-68
2022/12/30 16:17:46;;;;;;;;;;;;;;;8.12;68.73;101055.53;5344628;32;34665;-68
2022/12/30 16:20:48;;;;;;;;;;;;;;;8.73;67.11;101056.12;5364196;32;45042;-82
2022/12/30 16:23:50;;;;;;;;;;;;;;;9.11;65.20;101057.91;5375460;32;36227;-82
2022/12/30 16:26:52;;;;;;;;;;;;;;;9.21;64.88;101057.69;5362548;32;35634;-82
2022/12/30 16:29:54;;;;;;;;;;;;;;;9.26;64.41;101051.44;5375955;32;35481;-77
2022/12/30 16:32:57;;;;;;;;;;;;;;;9.30;64.64;101064.47;5373396;32;35364;-81
2022/12/30 16:35:59;;;;;;;;;;;;;;;8.67;66.60;101063.19;5378558;32;34996;-69
2022/12/30 16:39:01;;;;;;;;;;;;;;;8.75;66.56;101054.31;5364183;32;35411;-83
2022/12/30 16:42:03;;;;;;;;;;;;;;;8.01;69.80;101084.53;5369765;32;34678;-82
2022/12/30 16:45:11;;;;;;;;;;;;;;;8.89;67.09;101081.13;5395759;32;34805;-82
2022/12/30 16:48:13;;;;;;;;;;;;;;;9.00;65.21;101075.62;5366027;32;35015;-83
2022/12/30 16:51:17;;;;;;;;;;;;;;;8.91;66.14;101072.31;5382352;32;37264;-68
2022/12/30 16:54:22;;;;;;;;;;;;;;;9.32;64.24;101078.41;5361333;32;47233;-68
2022/12/30 16:57:24;;;;;;;;;;;;;;;9.05;65.42;101089.50;5394441;32;35470;-83
2022/12/30 17:00:26;;;;;;;;;;;;;;;9.20;65.03;101086.53;5381982;32;34751;-86
2022/12/30 17:03:37;;;;;;;;;;;;;;;9.18;65.19;101086.59;5379432;32;34303;-82
2022/12/30 17:06:40;;;;;;;;;;;;;;;9.13;65.63;101091.06;5386121;32;34719;-67